createdAt,value
2022-10-16T04:34:12.717Z,7.85
2022-10-16T04:36:39.361Z,12.43
2022-10-16T04:39:06.057Z,8.05
2022-10-16T04:41:32.690Z,7.88
2022-10-16T04:43:59.503Z,6.28
2022-10-16T04:46:26.180Z,5.55
2022-10-16T04:48:52.900Z,5.75
2022-10-16T04:51:19.899Z,5.53
2022-10-16T04:53:46.554Z,5.10
2022-10-16T04:56:13.191Z,6.15
2022-10-16T04:58:39.840Z,4.50
2022-10-16T05:01:06.514Z,8.65
2022-10-16T05:03:33.339Z,5.75
2022-10-16T05:05:59.984Z,4.90
2022-10-16T05:08:26.624Z,4.80
2022-10-16T05:10:53.381Z,7.13
2022-10-16T05:13:20.029Z,8.45
2022-10-16T05:15:50.007Z,7.38
2022-10-16T05:18:17.014Z,6.15
2022-10-16T05:20:43.653Z,4.85
2022-10-16T05:23:11.228Z,4.45
2022-10-16T05:25:38.499Z,6.65
2022-10-16T05:28:05.406Z,6.05
2022-10-16T05:30:32.065Z,5.50
2022-10-16T05:32:58.718Z,5.38
2022-10-16T05:35:25.376Z,5.35
2022-10-16T05:37:52.013Z,5.18
2022-10-16T05:40:18.661Z,4.50
2022-10-16T05:42:45.308Z,4.65
2022-10-16T05:45:13.225Z,4.40
2022-10-16T05:47:40.479Z,8.35
2022-10-16T05:50:08.072Z,5.35
2022-10-16T05:52:34.709Z,3.80
2022-10-16T05:55:01.384Z,5.72
2022-10-16T05:57:28.278Z,4.38
2022-10-16T05:59:55.190Z,5.25
2022-10-16T06:02:21.844Z,4.35
2022-10-16T06:04:48.493Z,4.78
2022-10-16T06:07:15.137Z,3.80
2022-10-16T06:09:41.810Z,4.63
2022-10-16T06:12:08.469Z,4.55
2022-10-16T06:14:35.340Z,5.82
2022-10-16T06:17:02.022Z,5.75
2022-10-16T06:19:28.778Z,4.65
2022-10-16T06:21:55.432Z,4.95
2022-10-16T06:24:22.061Z,5.30
2022-10-16T06:26:48.734Z,4.45
2022-10-16T06:29:15.526Z,4.35
2022-10-16T06:31:42.229Z,4.45
2022-10-16T06:34:12.498Z,3.58
2022-10-16T06:36:40.210Z,4.85
2022-10-16T06:39:08.263Z,5.78
2022-10-16T06:41:35.514Z,3.55
2022-10-16T06:44:02.699Z,2.88
2022-10-16T06:46:29.499Z,10.13
2022-10-16T06:48:56.170Z,6.80
2022-10-16T06:51:24.783Z,5.20
2022-10-16T06:54:03.841Z,5.60
2022-10-16T06:56:32.641Z,4.13
2022-10-16T06:58:59.846Z,6.25
2022-10-16T07:01:27.002Z,4.53
2022-10-16T07:03:54.333Z,5.60
2022-10-16T07:06:22.973Z,6.82
2022-10-16T07:08:50.566Z,3.97
2022-10-16T07:11:19.824Z,3.78
2022-10-16T07:13:51.059Z,4.97
2022-10-16T07:16:23.934Z,4.40
2022-10-16T07:18:55.080Z,4.57
2022-10-16T07:21:23.533Z,4.22
2022-10-16T07:23:55.006Z,3.72
2022-10-16T07:26:22.202Z,4.43
2022-10-16T07:28:49.114Z,5.00
2022-10-16T07:31:17.231Z,4.88
2022-10-16T07:33:46.100Z,7.05
2022-10-16T07:36:16.221Z,4.53
2022-10-16T07:38:43.753Z,4.38
2022-10-16T07:41:16.181Z,5.78
2022-10-16T07:43:51.100Z,4.18
2022-10-16T07:46:19.710Z,7.15
2022-10-16T07:48:47.191Z,6.85
2022-10-16T07:51:16.364Z,6.00
2022-10-16T07:53:43.063Z,4.38
2022-10-16T07:56:10.507Z,5.03
2022-10-16T07:58:40.563Z,7.28
2022-10-16T08:01:09.582Z,5.05
2022-10-16T08:03:36.378Z,4.55
2022-10-16T08:06:04.342Z,7.18
2022-10-16T08:08:31.320Z,5.47
2022-10-16T08:10:58.064Z,4.55
2022-10-16T08:13:24.914Z,6.13
2022-10-16T08:15:51.583Z,6.10
2022-10-16T08:18:18.269Z,7.32
2022-10-16T08:20:44.986Z,5.20
2022-10-16T08:23:14.952Z,4.57
2022-10-16T08:25:42.658Z,4.38
2022-10-16T08:28:11.279Z,6.53
2022-10-16T08:30:38.642Z,3.67
2022-10-16T08:33:05.697Z,6.72
2022-10-16T08:35:32.345Z,5.20
2022-10-16T08:37:58.997Z,5.50
2022-10-16T08:40:34.167Z,7.15
2022-10-16T08:43:30.294Z,7.57
2022-10-16T08:46:38.849Z,7.68
2022-10-16T08:49:14.434Z,8.27
2022-10-16T08:51:44.257Z,11.80
2022-10-16T08:54:32.269Z,12.05
2022-10-16T08:57:09.919Z,7.10
2022-10-16T08:59:36.598Z,6.90
2022-10-16T09:02:03.664Z,7.78
2022-10-16T09:04:45.426Z,8.38
2022-10-16T09:07:47.162Z,7.70
2022-10-16T09:10:27.115Z,5.75
2022-10-16T09:13:05.250Z,5.00
2022-10-16T09:15:40.758Z,5.25
2022-10-16T09:18:49.319Z,6.82
2022-10-16T09:21:26.434Z,6.07
2022-10-16T09:23:54.864Z,4.03
2022-10-16T09:28:53.822Z,4.68
2022-10-16T09:31:22.624Z,4.45
2022-10-16T09:34:00.658Z,6.43
2022-10-16T09:36:29.097Z,3.90
2022-10-16T09:39:13.605Z,5.63
2022-10-16T09:41:45.830Z,3.03
2022-10-16T09:44:30.057Z,4.15
2022-10-16T09:47:27.536Z,4.55
2022-10-16T09:50:05.126Z,3.88
2022-10-16T09:52:32.166Z,3.58
2022-10-16T09:55:13.446Z,3.50
2022-10-16T09:57:53.670Z,4.78
2022-10-16T10:00:21.987Z,5.28
2022-10-16T10:02:49.350Z,5.95
2022-10-16T10:05:23.740Z,3.90
2022-10-16T10:08:01.749Z,3.90
2022-10-16T10:10:32.626Z,6.00
2022-10-16T10:13:00.140Z,5.38
2022-10-16T10:15:29.090Z,3.20
2022-10-16T10:17:58.079Z,4.00
2022-10-16T10:20:39.574Z,3.67
2022-10-16T10:23:23.926Z,3.63
2022-10-16T10:26:13.209Z,3.80
2022-10-16T10:29:03.884Z,3.08
2022-10-16T10:31:44.937Z,3.30
2022-10-16T10:34:36.766Z,6.72
2022-10-16T10:37:33.817Z,2.85
2022-10-16T10:40:12.375Z,2.97
2022-10-16T10:42:57.591Z,3.97
2022-10-16T10:45:43.666Z,4.15
2022-10-16T10:48:25.432Z,3.80
2022-10-16T10:51:15.790Z,4.60
2022-10-16T10:54:17.699Z,2.45
2022-10-16T10:56:56.983Z,8.15
2022-10-16T10:59:30.930Z,5.18
2022-10-16T11:02:27.018Z,1.63
2022-10-16T11:05:16.496Z,1.98
2022-10-16T11:07:56.178Z,5.22
2022-10-16T11:10:31.681Z,2.42
2022-10-16T11:13:43.472Z,2.15
2022-10-16T11:16:37.445Z,4.80
2022-10-16T11:19:14.066Z,2.22
2022-10-16T11:21:51.438Z,1.90
2022-10-16T11:24:31.743Z,1.48
2022-10-16T11:27:04.419Z,2.22
2022-10-16T11:29:32.946Z,1.80
2022-10-16T11:32:12.478Z,1.92
2022-10-16T11:34:48.718Z,3.30
2022-10-16T11:37:18.159Z,4.07
2022-10-16T11:39:46.077Z,2.58
2022-10-16T11:42:35.246Z,1.98
2022-10-16T11:45:07.865Z,2.17
2022-10-16T11:48:04.303Z,1.65
2022-10-16T11:51:21.972Z,1.70
2022-10-16T11:54:29.430Z,1.55
2022-10-16T11:57:02.467Z,3.10
2022-10-16T11:59:46.181Z,2.35
2022-10-16T12:02:15.846Z,1.63
2022-10-16T12:04:54.397Z,2.05
2022-10-16T12:07:27.415Z,6.07
2022-10-16T12:09:54.111Z,1.85
2022-10-16T12:12:37.134Z,1.70
2022-10-16T12:15:47.438Z,1.80
2022-10-16T12:18:24.143Z,2.15
2022-10-16T12:21:06.829Z,2.88
2022-10-16T12:23:38.719Z,1.05
2022-10-16T12:26:06.345Z,2.78
2022-10-16T12:28:34.568Z,1.13
2022-10-16T12:31:07.142Z,1.77
2022-10-16T12:33:36.742Z,1.35
2022-10-16T12:36:10.098Z,6.43
2022-10-16T12:38:46.382Z,2.08
2022-10-16T12:41:15.536Z,2.60
2022-10-16T12:43:46.562Z,1.83
2022-10-16T12:46:15.937Z,1.20
2022-10-16T12:48:55.361Z,2.50
2022-10-16T12:51:32.038Z,1.42
2022-10-16T12:54:05.845Z,1.90
2022-10-16T12:56:58.489Z,2.30
2022-10-16T12:59:45.984Z,1.93
2022-10-16T13:02:30.812Z,1.77
2022-10-16T13:05:03.285Z,3.38
2022-10-16T13:07:46.935Z,1.95
2022-10-16T13:10:16.730Z,2.85
2022-10-16T13:12:52.661Z,2.55
2022-10-16T13:15:36.382Z,2.13
2022-10-16T13:18:44.125Z,3.65
2022-10-16T13:21:19.887Z,1.60
2022-10-16T13:23:56.665Z,1.33
2022-10-16T13:26:54.001Z,4.07
2022-10-16T13:29:21.433Z,2.17
2022-10-16T13:31:48.714Z,2.63
2022-10-16T13:34:18.921Z,2.75
2022-10-16T13:36:51.275Z,2.72
2022-10-16T13:39:29.498Z,1.50
2022-10-16T13:42:09.010Z,1.98
2022-10-16T13:44:49.616Z,2.67
2022-10-16T13:47:17.473Z,2.70
2022-10-16T13:49:44.394Z,2.53
2022-10-16T13:52:21.841Z,3.15
2022-10-16T13:54:49.047Z,2.25
2022-10-16T13:57:26.809Z,2.17
2022-10-16T13:59:55.825Z,1.85
2022-10-16T14:02:32.267Z,2.58
2022-10-16T14:04:59.563Z,1.52
2022-10-16T14:07:29.359Z,1.98
2022-10-16T14:09:56.864Z,2.25
2022-10-16T14:12:28.007Z,2.05
2022-10-16T14:14:56.546Z,2.30
2022-10-16T14:17:26.286Z,5.32
2022-10-16T14:19:59.536Z,2.97
2022-10-16T14:22:36.615Z,1.77
2022-10-16T14:25:21.387Z,3.88
2022-10-16T14:28:06.077Z,2.45
2022-10-16T14:30:36.881Z,2.95
2022-10-16T14:33:20.958Z,1.50
2022-10-16T14:35:57.613Z,3.70
2022-10-16T14:38:24.317Z,3.28
2022-10-16T14:40:51.467Z,2.90
2022-10-16T14:43:35.208Z,3.03
2022-10-16T14:46:12.405Z,4.55
2022-10-16T14:48:43.443Z,2.63
2022-10-16T14:51:15.238Z,2.35
2022-10-16T14:53:42.143Z,2.50
2022-10-16T14:56:15.511Z,4.40
2022-10-16T14:58:42.290Z,2.88
2022-10-16T15:01:11.932Z,3.40
2022-10-16T15:03:39.368Z,2.13
2022-10-16T15:06:15.073Z,3.50
2022-10-16T15:08:42.097Z,4.40
2022-10-16T15:11:19.649Z,3.08
2022-10-16T15:13:46.993Z,4.15
2022-10-16T15:16:16.669Z,4.32
2022-10-16T15:18:43.688Z,3.40
2022-10-16T15:21:23.277Z,3.03
2022-10-16T15:23:51.267Z,3.33
2022-10-16T15:26:17.910Z,6.28
2022-10-16T15:28:44.917Z,3.08
2022-10-16T15:31:11.669Z,3.55
2022-10-16T15:33:39.948Z,3.83
2022-10-16T15:36:07.031Z,4.07
2022-10-16T15:38:33.818Z,2.42
2022-10-16T15:41:00.641Z,2.50
2022-10-16T15:43:27.522Z,2.88
2022-10-16T15:46:06.957Z,2.95
2022-10-16T15:48:34.037Z,3.35
2022-10-16T15:51:01.696Z,4.28
2022-10-16T15:53:28.478Z,3.17
2022-10-16T15:55:55.305Z,4.63
2022-10-16T15:58:21.974Z,4.18
2022-10-16T16:01:01.723Z,4.90
2022-10-16T16:03:29.354Z,2.85
2022-10-16T16:05:56.338Z,2.60
2022-10-16T16:08:23.331Z,3.03
2022-10-16T16:11:00.749Z,4.57
2022-10-16T16:13:27.764Z,4.20
2022-10-16T16:15:54.761Z,5.05
2022-10-16T16:18:21.854Z,3.85
2022-10-16T16:20:48.567Z,4.85
2022-10-16T16:23:15.553Z,3.58
2022-10-16T16:25:42.331Z,5.45
2022-10-16T16:28:11.454Z,4.10
2022-10-16T16:30:38.501Z,7.00
2022-10-16T16:33:05.409Z,8.02
2022-10-16T16:35:32.058Z,11.27
2022-10-16T16:37:58.730Z,12.32
2022-10-16T16:40:25.381Z,22.73
2022-10-16T16:42:52.038Z,49.75
2022-10-16T16:45:18.740Z,8.40
2022-10-16T16:47:45.493Z,8.30
2022-10-16T16:50:12.129Z,4.78
2022-10-16T16:52:38.781Z,4.82
2022-10-16T16:55:05.717Z,8.93
2022-10-16T16:57:32.437Z,10.02
2022-10-16T16:59:59.133Z,10.25
2022-10-16T17:02:26.037Z,10.23
2022-10-16T17:04:52.903Z,10.00
2022-10-16T17:07:24.019Z,8.40
2022-10-16T17:09:51.146Z,8.38
2022-10-16T17:12:17.776Z,9.40
2022-10-16T17:14:44.538Z,7.22
2022-10-16T17:17:11.438Z,7.10
2022-10-16T17:19:38.221Z,6.28
2022-10-16T17:22:04.921Z,7.63
2022-10-16T17:24:31.569Z,8.30
2022-10-16T17:26:58.404Z,10.15
2022-10-16T17:29:25.091Z,6.53
2022-10-16T17:31:51.776Z,5.85
2022-10-16T17:34:18.668Z,3.92
2022-10-16T17:36:46.961Z,10.85
2022-10-16T17:39:15.205Z,5.00
2022-10-16T17:41:41.865Z,3.65
2022-10-16T17:44:08.600Z,4.07
2022-10-16T17:46:40.017Z,32.53
2022-10-16T17:49:09.540Z,48.90
2022-10-16T17:51:36.566Z,30.88
2022-10-16T17:54:03.503Z,12.95
2022-10-16T17:56:31.223Z,13.82
2022-10-16T17:59:00.343Z,6.35
2022-10-16T18:01:30.337Z,6.05
2022-10-16T18:04:00.330Z,4.80
2022-10-16T18:06:27.614Z,6.32
2022-10-16T18:08:56.704Z,4.40
2022-10-16T18:11:24.580Z,8.25
2022-10-16T18:13:56.624Z,3.95
2022-10-16T18:16:24.706Z,6.88
2022-10-16T18:18:51.969Z,7.57
2022-10-16T18:21:20.180Z,6.68
2022-10-16T18:23:51.000Z,5.78
2022-10-16T18:26:19.670Z,6.15
2022-10-16T18:28:46.377Z,5.85
2022-10-16T18:31:15.964Z,4.30
2022-10-16T18:33:53.842Z,3.10
2022-10-16T18:36:22.606Z,4.85
2022-10-16T18:38:50.432Z,5.63
2022-10-16T18:41:18.081Z,9.43
2022-10-16T18:43:44.789Z,4.93
2022-10-16T18:46:14.530Z,4.43
2022-10-16T18:48:42.070Z,5.18
2022-10-16T18:51:23.801Z,6.18
2022-10-16T18:53:53.237Z,4.25
2022-10-16T18:56:21.634Z,6.60
2022-10-16T18:58:49.447Z,4.10
2022-10-16T19:01:24.375Z,3.85
2022-10-16T19:03:57.722Z,3.65
2022-10-16T19:06:25.017Z,3.05
2022-10-16T19:08:51.761Z,3.65
2022-10-16T19:11:20.533Z,5.88
2022-10-16T19:13:48.258Z,4.05
2022-10-16T19:16:21.482Z,5.55
2022-10-16T19:21:16.678Z,5.53
2022-10-16T19:23:43.860Z,7.30
2022-10-16T19:26:16.068Z,6.40
2022-10-16T19:28:44.344Z,4.18
2022-10-16T19:31:14.634Z,5.30
2022-10-16T19:33:41.696Z,5.47
2022-10-16T19:36:23.262Z,4.60
2022-10-16T19:38:54.666Z,3.65
2022-10-16T19:41:23.539Z,5.10
2022-10-16T19:43:51.025Z,4.57
2022-10-16T19:46:25.877Z,4.40
2022-10-16T19:48:57.371Z,6.28
2022-10-16T19:51:25.389Z,4.45
2022-10-16T19:53:57.429Z,5.30
2022-10-16T19:56:25.652Z,3.83
2022-10-16T19:58:54.936Z,4.00
2022-10-16T20:01:22.790Z,4.32
2022-10-16T20:03:50.368Z,6.72
2022-10-16T20:06:18.854Z,4.15
2022-10-16T20:08:47.957Z,4.30
2022-10-16T20:11:17.093Z,5.53
2022-10-16T20:13:44.423Z,4.53
2022-10-16T20:16:12.865Z,6.47
2022-10-16T20:18:40.223Z,3.70
2022-10-16T20:21:11.113Z,4.18
2022-10-16T20:23:37.879Z,4.13
2022-10-16T20:26:04.809Z,4.25
2022-10-16T20:28:31.574Z,5.32
2022-10-16T20:30:58.345Z,3.65
2022-10-16T20:33:24.987Z,3.97
2022-10-16T20:35:51.889Z,3.63
2022-10-16T20:38:19.125Z,3.97
2022-10-16T20:40:47.555Z,3.55
2022-10-16T20:43:16.409Z,4.03
2022-10-16T20:45:43.745Z,3.55
2022-10-16T20:48:13.755Z,2.92
2022-10-16T20:50:41.618Z,5.30
2022-10-16T20:53:08.780Z,5.13
2022-10-16T20:55:37.705Z,5.45
2022-10-16T20:58:05.698Z,4.57
2022-10-16T21:00:32.397Z,5.97
2022-10-16T21:02:59.167Z,4.32
2022-10-16T21:05:28.847Z,6.95
2022-10-16T21:07:55.783Z,3.80
2022-10-16T21:10:22.951Z,3.90
2022-10-16T21:12:54.613Z,5.82
2022-10-16T21:15:21.736Z,4.03
2022-10-16T21:17:48.404Z,3.30
2022-10-16T21:20:15.158Z,4.13
2022-10-16T21:22:41.791Z,7.72
2022-10-16T21:25:08.649Z,3.13
2022-10-16T21:27:39.322Z,2.88
2022-10-16T21:30:07.811Z,5.13
2022-10-16T21:32:40.823Z,3.83
2022-10-16T21:35:08.061Z,5.72
2022-10-16T21:37:35.154Z,8.50
2022-10-16T21:40:02.045Z,8.27
2022-10-16T21:42:28.915Z,5.78
2022-10-16T21:44:56.014Z,3.42
2022-10-16T21:47:22.717Z,3.60
2022-10-16T21:49:49.458Z,4.65
2022-10-16T21:52:16.368Z,3.55
2022-10-16T21:54:43.113Z,4.18
2022-10-16T21:57:10.153Z,4.72
2022-10-16T21:59:36.813Z,5.95
2022-10-16T22:02:03.500Z,5.38
2022-10-16T22:04:30.228Z,5.95
2022-10-16T22:06:56.882Z,7.70
2022-10-16T22:09:23.520Z,4.88
2022-10-16T22:11:50.875Z,5.28
2022-10-16T22:14:21.244Z,5.22
2022-10-16T22:16:49.605Z,4.45
2022-10-16T22:19:18.805Z,3.55
2022-10-16T22:21:47.059Z,5.30
2022-10-16T22:24:17.626Z,3.38
2022-10-16T22:26:44.892Z,3.90
2022-10-16T22:29:13.283Z,3.47
2022-10-16T22:31:40.172Z,4.68
2022-10-16T22:34:07.116Z,4.93
2022-10-16T22:36:34.276Z,7.35
2022-10-16T22:39:01.487Z,8.60
2022-10-16T22:41:28.430Z,5.85
2022-10-16T22:43:55.135Z,25.85
2022-10-16T22:46:27.882Z,5.38
2022-10-16T22:48:55.975Z,4.70
2022-10-16T22:51:23.826Z,3.17
2022-10-16T22:56:20.340Z,3.70
2022-10-16T22:58:47.255Z,5.53
